Time;durP1;ratioP1;P1;durP2;ratioP2;P2;SDS_P1;SDS_P2;PMS_P1;PMS_P2;Temp;Humidity;BMP_temperature;BMP_pressure;BME280_temperature;BME280_humidity;BME280_pressure;Samples;Min_cycle;Max_cycle;Signal;HPM_P1;HPM_P2
2022/05/12 00:02:18;;;;;;;9.93;4.45;;;;;;;13.49;68.16;99429.13;1676845;84;20964;-78
2022/05/12 00:04:45;;;;;;;8.85;4.58;;;;;;;13.47;69.33;99430.94;1677220;84;20983;-77
2022/05/12 00:07:12;;;;;;;13.30;4.42;;;;;;;13.44;69.23;99427.10;1690394;84;21006;-78
2022/05/12 00:09:38;;;;;;;8.45;3.87;;;;;;;13.46;69.23;99426.60;1678501;84;20984;-77
2022/05/12 00:12:24;;;;;;;9.83;4.50;;;;;;;13.43;71.56;99429.30;1693996;84;20956;-80
2022/05/12 00:14:51;;;;;;;6.70;4.10;;;;;;;13.45;69.26;99432.28;1678806;84;21015;-78
2022/05/12 00:17:35;;;;;;;9.53;3.92;;;;;;;13.48;69.21;99433.94;1684326;84;21572;-79
2022/05/12 00:20:02;;;;;;;7.95;4.50;;;;;;;13.47;71.31;99432.24;1695664;84;20980;-77
2022/05/12 00:22:29;;;;;;;10.23;5.08;;;;;;;13.50;69.71;99426.45;1688749;84;21005;-79
2022/05/12 00:24:55;;;;;;;8.40;4.45;;;;;;;13.42;71.34;99431.52;1675562;84;20979;-78
2022/05/12 00:27:40;;;;;;;9.38;4.78;;;;;;;13.39;70.12;99429.87;1689588;84;20982;-80
2022/05/12 00:30:09;;;;;;;8.30;3.92;;;;;;;13.33;71.19;99432.22;1693922;84;20996;-78
2022/05/12 00:32:42;;;;;;;9.48;4.55;;;;;;;13.29;69.53;99425.38;1694341;84;20984;-79
2022/05/12 00:35:27;;;;;;;9.90;4.87;;;;;;;13.21;71.74;99428.65;1698426;84;20971;-79
2022/05/12 00:37:53;;;;;;;10.88;5.30;;;;;;;13.15;71.59;99430.14;1690317;84;21040;-78
2022/05/12 00:40:42;;;;;;;9.38;4.83;;;;;;;13.09;70.21;99433.78;1693361;84;21465;-81
2022/05/12 00:43:43;;;;;;;9.10;4.30;;;;;;;13.03;69.10;99427.45;1688040;84;21031;-79
2022/05/12 00:46:15;;;;;;;8.43;4.60;;;;;;;12.98;70.25;99429.33;1691365;84;21001;-80
2022/05/12 00:48:42;;;;;;;8.28;3.85;;;;;;;12.92;70.98;99434.73;1688389;84;20968;-79
2022/05/12 00:51:13;;;;;;;10.80;4.85;;;;;;;12.88;70.99;99432.66;1674334;84;20983;-81
2022/05/12 00:53:41;;;;;;;6.95;4.28;;;;;;;12.86;71.62;99428.39;1685297;84;20987;-81
2022/05/12 00:56:12;;;;;;;6.42;4.05;;;;;;;12.87;71.96;99430.08;1678977;84;21075;-80
2022/05/12 00:58:39;;;;;;;7.62;4.22;;;;;;;12.88;70.70;99424.83;1690343;84;20998;-80
2022/05/12 01:01:08;;;;;;;7.30;3.95;;;;;;;12.87;70.99;99423.13;1696686;84;20991;-80
2022/05/12 01:03:39;;;;;;;10.48;4.83;;;;;;;12.82;72.36;99422.40;1682803;84;21007;-78
2022/05/12 01:06:08;;;;;;;8.65;4.50;;;;;;;12.81;72.60;99424.62;1674837;84;21007;-80
2022/05/12 01:08:35;;;;;;;13.48;5.45;;;;;;;12.80;71.96;99430.72;1679535;84;21498;-78
2022/05/12 01:11:07;;;;;;;18.98;5.05;;;;;;;12.76;71.79;99425.19;1675993;84;20960;-81
2022/05/12 01:13:34;;;;;;;14.20;4.90;;;;;;;12.75;71.89;99418.24;1663880;84;21012;-78
2022/05/12 01:16:02;;;;;;;10.65;4.45;;;;;;;12.70;72.09;99424.91;1681775;84;21507;-79
2022/05/12 01:18:32;;;;;;;6.85;4.42;;;;;;;12.69;73.09;99417.12;1676945;84;21082;-79
2022/05/12 01:21:00;;;;;;;14.23;4.72;;;;;;;12.67;72.91;99417.61;1688945;84;21000;-80
2022/05/12 01:23:31;;;;;;;7.37;4.75;;;;;;;12.67;72.11;99422.41;1677063;84;20977;-80
2022/05/12 01:26:02;;;;;;;7.95;4.55;;;;;;;12.57;73.82;99423.98;1679277;84;21003;-80
2022/05/12 01:28:29;;;;;;;8.90;4.90;;;;;;;12.54;73.38;99423.64;1694314;84;21055;-79
2022/05/12 01:30:56;;;;;;;13.60;5.08;;;;;;;12.44;73.79;99424.80;1692125;84;20983;-78
2022/05/12 01:33:23;;;;;;;9.33;4.78;;;;;;;12.42;74.26;99427.89;1676592;84;21491;-77
2022/05/12 01:35:50;;;;;;;9.18;4.67;;;;;;;12.41;73.54;99431.38;1689890;84;21523;-78
2022/05/12 01:38:17;;;;;;;14.35;5.28;;;;;;;12.31;74.58;99434.25;1684484;84;20983;-81
2022/05/12 01:40:44;;;;;;;16.00;4.95;;;;;;;12.28;73.72;99433.48;1693198;84;20975;-77
2022/05/12 01:43:14;;;;;;;12.93;5.03;;;;;;;12.24;75.39;99437.06;1671040;84;21027;-78
2022/05/12 01:45:42;;;;;;;13.08;4.55;;;;;;;12.23;74.36;99433.58;1689360;84;21022;-77
2022/05/12 01:48:11;;;;;;;7.53;4.53;;;;;;;12.22;73.80;99429.27;1676684;84;20964;-77
2022/05/12 01:50:42;;;;;;;11.45;4.35;;;;;;;12.25;73.94;99440.06;1686342;84;20984;-77
2022/05/12 01:53:11;;;;;;;10.03;4.47;;;;;;;12.25;73.83;99433.09;1678975;84;21523;-79
2022/05/12 01:55:39;;;;;;;7.90;4.17;;;;;;;12.26;74.28;99441.33;1683198;83;21495;-78
2022/05/12 01:58:07;;;;;;;8.28;4.33;;;;;;;12.26;74.69;99443.09;1684532;84;21066;-76
2022/05/12 02:00:35;;;;;;;11.38;4.95;;;;;;;12.25;74.07;99441.36;1691307;83;20968;-83
2022/05/12 02:03:02;;;;;;;8.25;4.50;;;;;;;12.18;74.95;99434.63;1674632;84;20959;-77
2022/05/12 02:05:33;;;;;;;11.00;5.22;;;;;;;12.10;75.91;99439.57;1684606;84;21039;-79
2022/05/12 02:08:00;;;;;;;9.58;5.35;;;;;;;12.06;74.36;99440.55;1688232;84;20952;-77
2022/05/12 02:10:31;;;;;;;12.40;5.95;;;;;;;12.02;73.84;99445.89;1671772;84;20967;-78
2022/05/12 02:12:58;;;;;;;9.05;4.40;;;;;;;11.95;74.85;99437.34;1684226;84;20971;-78
2022/05/12 02:15:25;;;;;;;11.83;5.40;;;;;;;11.91;73.51;99443.53;1670912;84;20983;-77
2022/05/12 02:17:52;;;;;;;12.85;5.72;;;;;;;11.83;74.30;99444.14;1684137;84;21610;-77
2022/05/12 02:20:21;;;;;;;8.38;4.55;;;;;;;11.78;75.23;99436.45;1671326;84;20973;-77
2022/05/12 02:22:49;;;;;;;8.48;6.10;;;;;;;11.72;75.33;99440.05;1688013;84;20991;-76
2022/05/12 02:25:17;;;;;;;9.05;4.58;;;;;;;11.67;75.80;99447.11;1673083;84;20974;-77
2022/05/12 02:27:48;;;;;;;8.30;5.20;;;;;;;11.65;74.73;99438.93;1686149;84;21027;-79
2022/05/12 02:30:25;;;;;;;10.55;5.17;;;;;;;11.62;77.81;99435.09;1693994;84;20984;-79
2022/05/12 02:32:53;;;;;;;11.65;4.95;;;;;;;11.60;76.77;99435.56;1682592;84;21032;-78
2022/05/12 02:35:20;;;;;;;10.03;5.00;;;;;;;11.60;75.46;99440.77;1672815;84;20963;-80
2022/05/12 02:37:47;;;;;;;8.35;4.78;;;;;;;11.59;77.11;99440.38;1678373;84;20997;-79
2022/05/12 02:40:17;;;;;;;11.25;4.53;;;;;;;11.57;77.81;99444.77;1689479;84;21441;-76
2022/05/12 02:42:44;;;;;;;8.63;4.62;;;;;;;11.54;76.05;99445.25;1678615;84;21068;-78
2022/05/12 02:45:12;;;;;;;10.08;4.53;;;;;;;11.52;77.44;99443.13;1689667;83;20969;-79
2022/05/12 02:47:39;;;;;;;12.28;4.75;;;;;;;11.55;75.29;99455.22;1682814;85;21561;-77
2022/05/12 02:50:08;;;;;;;11.18;5.33;;;;;;;11.51;77.52;99450.97;1682628;85;21042;-77
2022/05/12 02:52:35;;;;;;;9.38;4.53;;;;;;;11.50;77.54;99450.58;1682811;85;21049;-77
2022/05/12 02:55:01;;;;;;;13.48;5.20;;;;;;;11.46;77.90;99452.81;1682890;84;20973;-79
2022/05/12 02:57:28;;;;;;;11.38;5.28;;;;;;;11.48;75.99;99460.14;1682735;83;21028;-78
2022/05/12 02:59:54;;;;;;;7.00;4.65;;;;;;;11.45;77.20;99457.63;1682782;85;21477;-81
2022/05/12 03:02:21;;;;;;;14.85;5.55;;;;;;;11.46;76.01;99456.30;1682851;84;20986;-78
2022/05/12 03:04:48;;;;;;;7.75;4.67;;;;;;;11.44;76.28;99459.38;1682864;84;21050;-77
2022/05/12 03:07:15;;;;;;;11.55;5.25;;;;;;;11.43;77.09;99462.02;1682837;84;21049;-78
2022/05/12 03:09:41;;;;;;;10.68;5.05;;;;;;;11.42;76.52;99462.89;1682881;85;21441;-80
2022/05/12 03:12:08;;;;;;;10.15;4.95;;;;;;;11.41;76.67;99466.40;1682734;85;21025;-78
2022/05/12 03:14:35;;;;;;;11.38;4.72;;;;;;;11.38;76.99;99460.83;1682761;84;20997;-78
2022/05/12 03:17:02;;;;;;;12.30;4.80;;;;;;;11.37;77.65;99459.55;1682903;84;21772;-77
2022/05/12 03:19:29;;;;;;;15.05;5.03;;;;;;;11.35;76.85;99455.67;1682396;85;21077;-77
2022/05/12 03:21:56;;;;;;;9.45;4.70;;;;;;;11.31;77.47;99456.19;1682725;85;21021;-78
2022/05/12 03:24:23;;;;;;;11.80;5.50;;;;;;;11.30;77.54;99457.09;1682737;85;20974;-77
2022/05/12 03:26:49;;;;;;;11.28;5.53;;;;;;;11.31;77.58;99461.39;1682840;85;20989;-77
2022/05/12 03:29:16;;;;;;;13.35;5.22;;;;;;;11.34;76.76;99462.63;1681059;84;20967;-77
2022/05/12 03:31:44;;;;;;;12.82;4.92;;;;;;;11.31;78.53;99463.14;1697758;84;20952;-76
2022/05/12 03:34:11;;;;;;;11.63;4.90;;;;;;;11.30;77.84;99465.31;1699143;84;20984;-77
2022/05/12 03:36:39;;;;;;;15.83;4.67;;;;;;;11.30;77.27;99466.20;1699002;84;21508;-76
2022/05/12 03:39:10;;;;;;;11.60;5.15;;;;;;;11.29;76.77;99463.17;1699160;84;21487;-77
2022/05/12 03:41:36;;;;;;;11.33;5.75;;;;;;;11.29;76.93;99470.98;1698976;84;21046;-79
2022/05/12 03:46:48;;;;;;;11.53;5.25;;;;;;;11.30;76.78;99471.41;1699045;84;21015;-80
2022/05/12 03:49:14;;;;;;;10.68;5.40;;;;;;;11.31;77.09;99473.55;1699110;84;20980;-79
2022/05/12 03:51:41;;;;;;;10.35;5.62;;;;;;;11.34;77.57;99479.55;1699091;83;21540;-78
2022/05/12 03:54:08;;;;;;;8.18;4.62;;;;;;;11.34;78.67;99483.91;1699117;83;20976;-79
2022/05/12 03:56:35;;;;;;;19.73;5.08;;;;;;;11.38;77.96;99484.67;1698352;84;20991;-77
2022/05/12 03:59:03;;;;;;;11.90;5.45;;;;;;;11.42;78.80;99488.50;1697396;83;20999;-79
2022/05/12 04:01:30;;;;;;;13.45;4.72;;;;;;;11.46;78.94;99480.15;1697343;84;21518;-78
2022/05/12 04:03:56;;;;;;;10.48;5.25;;;;;;;11.50;78.31;99484.42;1697414;83;21007;-78
2022/05/12 04:06:23;;;;;;;10.53;5.85;;;;;;;11.53;79.43;99483.03;1697195;84;20999;-77
2022/05/12 04:08:49;;;;;;;10.25;5.25;;;;;;;11.56;78.58;99488.19;1692297;84;21532;-78
2022/05/12 04:11:16;;;;;;;11.08;5.47;;;;;;;11.62;78.45;99493.26;1692195;84;21045;-78
2022/05/12 04:13:44;;;;;;;10.68;5.40;;;;;;;11.63;77.88;99489.74;1692196;85;21017;-77
2022/05/12 04:16:11;;;;;;;16.02;6.08;;;;;;;11.67;76.73;99486.17;1692329;84;20981;-78
2022/05/12 04:18:37;;;;;;;13.45;5.80;;;;;;;11.73;78.38;99486.48;1691982;84;21064;-79
2022/05/12 04:21:04;;;;;;;11.88;5.47;;;;;;;11.80;76.88;99491.09;1692262;84;20957;-78
2022/05/12 04:23:30;;;;;;;10.10;5.30;;;;;;;11.87;76.18;99492.21;1692078;84;20969;-78
2022/05/12 04:25:57;;;;;;;19.20;6.08;;;;;;;11.96;76.79;99492.48;1692671;84;20960;-79
2022/05/12 04:28:23;;;;;;;11.00;5.28;;;;;;;12.04;76.61;99494.91;1674689;83;21548;-79
2022/05/12 04:30:51;;;;;;;15.03;5.40;;;;;;;12.14;77.09;99502.91;1681369;84;20975;-79
2022/05/12 04:36:02;;;;;;;12.07;5.22;;;;;;;12.34;76.32;99501.09;1691079;84;20979;-79
2022/05/12 04:38:29;;;;;;;9.63;4.90;;;;;;;12.45;76.43;99508.17;1686642;83;20992;-79
2022/05/12 04:40:56;;;;;;;8.83;4.80;;;;;;;12.57;76.93;99500.93;1696837;83;20972;-78
2022/05/12 04:43:22;;;;;;;9.88;4.65;;;;;;;12.64;76.72;99503.34;1688357;83;20980;-78
2022/05/12 04:45:49;;;;;;;13.13;5.10;;;;;;;12.72;76.71;99505.28;1696945;83;21482;-78
2022/05/12 04:48:15;;;;;;;10.53;4.72;;;;;;;12.78;76.56;99509.48;1684727;83;21100;-77
2022/05/12 04:50:42;;;;;;;12.73;5.42;;;;;;;12.82;76.02;99515.02;1696861;83;21582;-77
2022/05/12 04:53:09;;;;;;;8.65;5.03;;;;;;;12.90;75.10;99508.29;1684876;83;20995;-78
2022/05/12 04:55:36;;;;;;;9.50;4.67;;;;;;;12.91;75.17;99509.56;1696870;83;20999;-81
2022/05/12 04:58:03;;;;;;;8.20;4.75;;;;;;;12.97;75.12;99507.23;1683732;83;21008;-79
2022/05/12 05:00:35;;;;;;;8.35;5.20;;;;;;;13.03;74.75;99508.78;1678316;84;20964;-78
2022/05/12 05:03:02;;;;;;;11.03;4.62;;;;;;;13.08;74.78;99505.61;1684161;84;20995;-82
2022/05/12 05:05:29;;;;;;;8.20;4.83;;;;;;;13.13;74.49;99501.97;1697323;84;20960;-78
2022/05/12 05:07:56;;;;;;;11.53;5.85;;;;;;;13.23;74.28;99501.68;1690846;84;21031;-77
2022/05/12 05:10:23;;;;;;;10.50;5.33;;;;;;;13.30;74.57;99502.80;1697334;83;20928;-78
2022/05/12 05:12:50;;;;;;;10.70;5.15;;;;;;;13.42;74.39;99498.12;1686095;83;21004;-78
2022/05/12 05:15:17;;;;;;;7.72;4.53;;;;;;;13.55;74.11;99502.08;1674165;84;21459;-77
2022/05/12 05:17:44;;;;;;;16.60;4.53;;;;;;;13.65;73.83;99501.34;1692181;83;20984;-79
2022/05/12 05:20:16;;;;;;;14.15;4.85;;;;;;;13.75;73.60;99504.49;1692806;83;20999;-77
2022/05/12 05:22:45;;;;;;;14.80;5.28;;;;;;;13.84;73.01;99505.06;1691455;83;21101;-78
2022/05/12 05:25:12;;;;;;;9.25;4.72;;;;;;;13.96;72.63;99508.19;1683790;83;20991;-78
2022/05/12 05:27:39;;;;;;;12.90;5.35;;;;;;;14.05;72.16;99498.75;1677285;84;20996;-76
2022/05/12 05:30:10;;;;;;;10.08;4.90;;;;;;;14.12;71.60;99498.51;1688041;84;21038;-79
2022/05/12 05:32:37;;;;;;;9.55;5.05;;;;;;;14.22;71.41;99504.72;1692111;84;21047;-81
2022/05/12 05:35:06;;;;;;;8.85;4.45;;;;;;;14.31;71.32;99505.27;1691644;84;21813;-77
2022/05/12 05:37:34;;;;;;;12.75;4.75;;;;;;;14.37;70.82;99500.75;1692272;84;21004;-78
2022/05/12 05:40:03;;;;;;;8.23;4.10;;;;;;;14.47;70.82;99506.91;1694863;84;21448;-80
2022/05/12 05:42:29;;;;;;;7.67;3.85;;;;;;;14.60;70.81;99495.58;1690414;84;21019;-78
2022/05/12 05:44:56;;;;;;;7.90;4.17;;;;;;;14.78;70.41;99496.72;1697045;83;21955;-77
2022/05/12 05:47:22;;;;;;;6.83;4.15;;;;;;;14.84;69.55;99496.92;1689585;83;20932;-78
2022/05/12 05:49:49;;;;;;;9.05;4.45;;;;;;;14.96;69.61;99501.74;1691123;84;20980;-79
2022/05/12 05:55:00;;;;;;;7.80;4.22;;;;;;;15.18;68.60;99494.38;1681301;84;21483;-80
2022/05/12 05:57:33;;;;;;;8.15;4.35;;;;;;;15.31;67.92;99492.55;1687323;83;21028;-78
2022/05/12 06:00:04;;;;;;;8.00;4.30;;;;;;;15.42;67.52;99493.45;1697024;84;20992;-78
2022/05/12 06:02:32;;;;;;;9.48;4.03;;;;;;;15.53;67.36;99487.79;1689644;84;21487;-77
2022/05/12 06:04:59;;;;;;;8.40;4.47;;;;;;;15.63;66.73;99483.89;1693400;84;21447;-83
2022/05/12 06:07:26;;;;;;;8.50;4.00;;;;;;;15.67;66.46;99488.55;1683489;84;21007;-79
2022/05/12 06:09:53;;;;;;;6.62;3.95;;;;;;;15.79;66.66;99487.25;1694299;84;20971;-81
2022/05/12 06:12:19;;;;;;;13.28;4.37;;;;;;;15.90;66.24;99485.90;1699023;84;21065;-80
2022/05/12 06:14:46;;;;;;;8.70;4.20;;;;;;;16.04;65.39;99490.58;1680905;84;21707;-81
2022/05/12 06:17:13;;;;;;;7.83;3.80;;;;;;;16.15;65.15;99486.19;1692712;84;20960;-78
2022/05/12 06:19:41;;;;;;;7.10;3.85;;;;;;;16.22;64.90;99480.25;1689273;84;21094;-80
2022/05/12 06:22:09;;;;;;;10.53;3.75;;;;;;;16.34;65.02;99478.41;1697018;84;20991;-83
2022/05/12 06:24:35;;;;;;;8.78;3.80;;;;;;;16.44;64.49;99482.34;1687200;84;21831;-78
2022/05/12 06:27:02;;;;;;;8.03;3.72;;;;;;;16.61;63.97;99479.44;1679948;85;21027;-80
2022/05/12 06:29:29;;;;;;;7.95;3.52;;;;;;;16.68;63.53;99481.73;1696871;84;20964;-82
2022/05/12 06:31:55;;;;;;;8.25;4.08;;;;;;;16.83;63.26;99475.44;1698563;84;21007;-79
2022/05/12 06:34:21;;;;;;;6.87;3.58;;;;;;;16.94;62.39;99478.91;1679234;84;20975;-81
2022/05/12 06:36:51;;;;;;;12.30;3.77;;;;;;;17.04;62.43;99479.72;1698810;84;21058;-80
2022/05/12 06:39:17;;;;;;;9.48;3.75;;;;;;;17.16;60.69;99466.95;1685553;84;21023;-81
2022/05/12 06:41:43;;;;;;;7.33;3.55;;;;;;;17.34;61.29;99469.19;1698690;84;20996;-79
2022/05/12 06:44:10;;;;;;;7.33;3.50;;;;;;;17.46;61.47;99465.51;1689169;84;21589;-81
2022/05/12 06:46:38;;;;;;;8.35;3.70;;;;;;;17.62;60.85;99459.05;1681359;84;21015;-81
2022/05/12 06:49:05;;;;;;;15.13;3.65;;;;;;;17.77;60.79;99464.05;1690365;84;21019;-80
2022/05/12 06:51:32;;;;;;;7.67;4.03;;;;;;;17.93;59.69;99456.28;1689660;84;20981;-81
2022/05/12 06:53:59;;;;;;;12.63;3.58;;;;;;;18.07;58.92;99455.13;1694628;84;21516;-79
2022/05/12 06:56:26;;;;;;;12.05;3.70;;;;;;;18.20;58.98;99455.82;1696030;84;21510;-79
2022/05/12 06:58:52;;;;;;;7.03;3.20;;;;;;;18.35;58.38;99451.57;1696659;83;21043;-80
2022/05/12 07:01:20;;;;;;;6.78;3.30;;;;;;;18.49;57.59;99450.38;1673763;84;20956;-81
2022/05/12 07:03:46;;;;;;;7.28;3.42;;;;;;;18.63;57.27;99453.61;1694997;84;21047;-78
2022/05/12 07:06:13;;;;;;;9.50;3.45;;;;;;;18.78;56.08;99454.57;1678712;84;21463;-77
2022/05/12 07:08:41;;;;;;;9.58;3.47;;;;;;;18.95;56.62;99455.03;1682822;84;20991;-77
2022/05/12 07:11:10;;;;;;;6.45;3.12;;;;;;;19.09;55.74;99453.81;1672608;84;21007;-77
2022/05/12 07:13:57;;;;;;;8.15;3.17;;;;;;;19.27;54.84;99446.68;1692812;84;21032;-76
2022/05/12 07:16:23;;;;;;;7.10;3.10;;;;;;;19.43;54.87;99446.20;1706609;83;21000;-78
2022/05/12 07:18:50;;;;;;;7.58;3.33;;;;;;;19.57;53.37;99448.54;1683160;84;21061;-81
2022/05/12 07:26:49;;;;;;;9.20;3.95;;;;;;;20.00;51.78;99445.64;1677774;84;20972;-80
2022/05/12 07:29:21;;;;;;;7.95;2.72;;;;;;;20.15;51.47;99451.79;1693444;84;20976;-79
2022/05/12 07:31:48;;;;;;;9.23;3.20;;;;;;;20.31;51.03;99448.25;1685668;83;20975;-79
2022/05/12 07:34:18;;;;;;;7.58;2.90;;;;;;;20.50;50.72;99441.41;1699165;84;21095;-79
2022/05/12 07:36:54;;;;;;;7.47;2.60;;;;;;;20.68;49.77;99441.62;1688859;83;20979;-79
2022/05/12 07:39:20;;;;;;;;;;;;;;;20.79;49.28;99441.83;1677641;84;20999;-79
2022/05/12 07:41:47;;;;;;;8.43;3.08;;;;;;;20.94;48.60;99446.62;1693905;84;20424;-78
2022/05/12 07:44:16;;;;;;;7.33;2.98;;;;;;;21.08;48.69;99430.37;1699330;84;21019;-79
2022/05/12 07:46:43;;;;;;;5.83;2.98;;;;;;;21.26;48.68;99437.13;1694480;84;20983;-78
2022/05/12 07:49:10;;;;;;;7.95;3.05;;;;;;;21.37;47.25;99424.56;1690716;84;20999;-80
2022/05/12 07:51:37;;;;;;;6.25;2.98;;;;;;;21.48;45.76;99429.17;1697553;84;21818;-80
2022/05/12 07:54:04;;;;;;;8.40;3.77;;;;;;;21.58;46.19;99430.27;1688246;84;21011;-79
2022/05/12 07:56:30;;;;;;;11.35;2.98;;;;;;;21.66;46.07;99422.67;1698634;84;21027;-80
2022/05/12 07:58:59;;;;;;;6.62;3.20;;;;;;;21.74;44.56;99426.98;1687948;83;21060;-80
2022/05/12 08:01:27;;;;;;;8.18;2.50;;;;;;;21.86;44.16;99424.00;1690994;84;21006;-78
2022/05/12 08:03:54;;;;;;;6.08;2.75;;;;;;;21.93;44.64;99423.14;1674558;84;21133;-79
2022/05/12 08:06:21;;;;;;;6.00;2.77;;;;;;;22.07;43.87;99421.72;1689040;84;21527;-79
2022/05/12 08:08:50;;;;;;;5.55;2.55;;;;;;;22.18;41.73;99430.25;1685616;84;21329;-81
2022/05/12 08:11:19;;;;;;;5.72;2.80;;;;;;;22.29;42.61;99413.69;1696817;84;20975;-79
2022/05/12 08:13:47;;;;;;;4.90;2.45;;;;;;;22.35;42.20;99418.07;1684856;84;21031;-79
2022/05/12 08:16:16;;;;;;;5.37;2.80;;;;;;;22.49;42.71;99418.93;1696833;84;20975;-79
2022/05/12 08:18:45;;;;;;;8.53;2.90;;;;;;;22.57;42.54;99417.92;1677126;84;21589;-79
2022/05/12 08:21:13;;;;;;;9.78;3.22;;;;;;;22.62;41.91;99417.10;1685398;84;20935;-77
2022/05/12 08:23:40;;;;;;;7.12;2.70;;;;;;;22.67;41.85;99418.97;1685352;84;20983;-79
2022/05/12 08:26:07;;;;;;;9.05;2.75;;;;;;;22.73;41.57;99411.91;1683430;84;20956;-79
2022/05/12 08:28:33;;;;;;;6.60;2.75;;;;;;;22.82;41.73;99407.78;1697125;84;21531;-79
2022/05/12 08:31:00;;;;;;;7.40;3.65;;;;;;;22.88;41.56;99407.34;1697111;84;21444;-79
2022/05/12 08:33:27;;;;;;;7.70;2.52;;;;;;;22.93;41.83;99405.19;1689319;84;21007;-77
2022/05/12 08:35:53;;;;;;;5.67;2.60;;;;;;;22.99;41.52;99415.35;1697254;84;21038;-78
2022/05/12 08:38:21;;;;;;;10.13;2.70;;;;;;;23.02;40.81;99410.36;1690489;84;21059;-78
2022/05/12 08:41:28;;;;;;;7.78;3.05;;;;;;;23.10;41.37;99409.33;1677837;84;21032;-78
2022/05/12 08:44:02;;;;;;;5.55;2.55;;;;;;;23.20;41.62;99413.50;1697372;84;21509;-79
2022/05/12 08:46:44;;;;;;;7.20;2.87;;;;;;;23.26;41.53;99412.17;1697125;84;21012;-78
2022/05/12 08:49:27;;;;;;;10.93;3.00;;;;;;;23.33;41.73;99401.01;1695601;84;21167;-78
2022/05/12 08:52:32;;;;;;;;;;;;;;;23.52;42.07;99410.30;1700016;84;21054;-78
2022/05/12 08:55:25;;;;;;;4.67;2.33;;;;;;;23.57;40.75;99401.49;1697080;84;20138;-78
2022/05/12 08:58:09;;;;;;;4.47;2.60;;;;;;;23.58;41.00;99405.86;1697409;82;21036;-79
2022/05/12 09:00:47;;;;;;;12.25;3.20;;;;;;;23.68;40.53;99411.33;1698998;84;21492;-80
2022/05/12 09:03:39;;;;;;;6.42;2.70;;;;;;;23.81;40.19;99412.12;1698954;84;21015;-79
2022/05/12 09:06:17;;;;;;;7.25;2.90;;;;;;;23.91;40.55;99409.13;1699082;84;21766;-79
2022/05/12 09:09:03;;;;;;;11.70;2.85;;;;;;;24.06;40.96;99408.47;1699084;84;21120;-81
2022/05/12 09:11:54;;;;;;;5.50;2.62;;;;;;;24.24;40.51;99410.69;1699120;84;20971;-79
2022/05/12 09:14:38;;;;;;;9.13;3.10;;;;;;;24.34;39.65;99406.35;1698889;84;20956;-78
2022/05/12 09:17:05;;;;;;;7.90;2.72;;;;;;;24.42;40.20;99404.78;1696068;83;21079;-79
2022/05/12 09:19:31;;;;;;;4.87;2.70;;;;;;;24.52;39.02;99410.27;1698945;84;21119;-77
2022/05/12 09:21:58;;;;;;;7.72;2.83;;;;;;;24.64;39.10;99407.62;1698897;84;21471;-79
2022/05/12 09:24:24;;;;;;;8.80;3.08;;;;;;;24.69;38.75;99404.97;1698972;84;20999;-79
2022/05/12 09:27:11;;;;;;;6.55;2.47;;;;;;;24.83;38.45;99415.84;1699076;83;21063;-78
2022/05/12 09:29:47;;;;;;;6.78;2.70;;;;;;;24.92;38.77;99400.95;1699068;84;21016;-79
2022/05/12 09:32:23;;;;;;;6.55;2.60;;;;;;;24.94;38.55;99395.03;1699066;84;21563;-79
2022/05/12 09:35:25;;;;;;;5.80;2.70;;;;;;;25.11;38.54;99397.19;1699056;84;21006;-78
2022/05/12 09:37:53;;;;;;;5.28;2.50;;;;;;;25.27;37.45;99397.28;1681004;84;20992;-80
2022/05/12 09:40:36;;;;;;;6.53;2.70;;;;;;;25.34;37.22;99391.34;1670952;85;21116;-79
2022/05/12 09:43:29;;;;;;;6.17;2.50;;;;;;;25.42;36.64;99388.55;1671113;86;21023;-80
2022/05/12 09:46:07;;;;;;;7.78;2.47;;;;;;;25.49;36.60;99383.92;1671298;85;21535;-79
2022/05/12 09:48:37;;;;;;;5.87;2.90;;;;;;;25.57;37.02;99380.14;1671076;86;21023;-79
2022/05/12 09:51:32;;;;;;;5.60;2.45;;;;;;;25.67;36.32;99382.88;1674626;84;21139;-78
2022/05/12 09:54:23;;;;;;;7.30;2.80;;;;;;;25.72;35.00;99374.50;1671006;86;21011;-80
2022/05/12 09:57:18;;;;;;;6.45;2.20;;;;;;;25.78;35.19;99374.85;1671109;85;20995;-78
2022/05/12 09:59:56;;;;;;;6.20;2.37;;;;;;;25.87;35.48;99373.72;1670992;85;21023;-80
2022/05/12 10:08:21;;;;;;;9.20;2.40;;;;;;;26.09;34.54;99371.44;1671199;85;21515;-81
2022/05/12 10:10:53;;;;;;;4.83;2.52;;;;;;;26.21;34.46;99370.88;1671250;86;21582;-80
2022/05/12 10:13:31;;;;;;;7.60;3.00;;;;;;;26.34;34.76;99361.70;1679657;84;21041;-80
2022/05/12 10:16:00;;;;;;;6.45;2.52;;;;;;;26.46;34.02;99365.12;1697555;84;20953;-79
2022/05/12 10:18:40;;;;;;;4.20;2.27;;;;;;;26.53;33.87;99360.09;1673138;85;21107;-79
2022/05/12 10:21:47;;;;;;;14.45;3.00;;;;;;;26.55;33.43;99366.97;1676920;84;20984;-78
2022/05/12 10:24:39;;;;;;;6.40;2.83;;;;;;;26.46;33.20;99358.92;1691643;84;21492;-77
2022/05/12 10:27:16;;;;;;;6.60;2.75;;;;;;;26.45;33.25;99358.58;1645836;85;21483;-79
2022/05/12 10:29:57;;;;;;;5.50;2.80;;;;;;;26.53;33.35;99354.25;1690636;84;20967;-79
2022/05/12 10:33:07;;;;;;;9.08;2.60;;;;;;;26.60;33.07;99346.62;1675508;84;21538;-78
2022/05/12 10:35:43;;;;;;;6.17;2.70;;;;;;;26.63;32.79;99338.83;1697624;84;20940;-81
2022/05/12 10:38:29;;;;;;;6.75;2.67;;;;;;;26.70;32.68;99335.95;1673147;84;21023;-78
2022/05/12 10:41:01;;;;;;;8.03;2.65;;;;;;;26.77;32.82;99331.78;1695998;84;20990;-78
2022/05/12 10:43:53;;;;;;;4.78;2.60;;;;;;;26.89;32.05;99333.34;1670735;84;21570;-77
2022/05/12 10:46:46;;;;;;;7.47;3.00;;;;;;;26.95;32.49;99328.79;1692683;84;20979;-78
2022/05/12 10:49:23;;;;;;;6.15;2.30;;;;;;;26.96;31.37;99333.16;1683477;84;21043;-76
2022/05/12 10:52:04;;;;;;;7.53;2.27;;;;;;;26.93;32.08;99329.42;1685942;84;20987;-79
2022/05/12 10:54:54;;;;;;;11.03;2.70;;;;;;;27.01;31.46;99319.89;1673490;84;20972;-76
2022/05/12 10:57:47;;;;;;;9.68;2.72;;;;;;;27.05;31.00;99323.47;1683299;84;20995;-78
2022/05/12 11:00:26;;;;;;;;;;;;;;;27.07;31.41;99315.34;1700092;84;21448;-78
2022/05/12 11:02:58;;;;;;;5.05;2.72;;;;;;;27.09;31.24;99310.70;1697068;84;20137;-78
2022/05/12 11:05:41;;;;;;;7.30;2.62;;;;;;;27.15;30.90;99308.81;1679273;84;21023;-78
2022/05/12 11:08:36;;;;;;;10.80;3.20;;;;;;;27.18;31.28;99308.05;1693865;84;21499;-78
2022/05/12 11:11:15;;;;;;;8.25;2.50;;;;;;;27.23;31.33;99300.95;1678483;84;20996;-79
2022/05/12 11:14:05;;;;;;;7.62;2.50;;;;;;;27.28;31.08;99303.25;1684535;84;21012;-79
2022/05/12 11:16:55;;;;;;;5.25;2.47;;;;;;;27.43;30.22;99312.50;1686804;84;21563;-78
2022/05/12 11:19:25;;;;;;;6.83;2.50;;;;;;;27.47;29.70;99299.21;1681842;84;21059;-79
2022/05/12 11:22:35;;;;;;;4.87;2.33;;;;;;;27.55;30.25;99299.34;1688260;84;20960;-77
2022/05/12 11:25:31;;;;;;;11.38;2.35;;;;;;;27.60;29.84;99291.42;1669764;84;21009;-78
2022/05/12 11:31:03;;;;;;;5.20;2.27;;;;;;;27.72;29.28;99275.08;1673816;84;21130;-79
2022/05/12 11:33:38;;;;;;;7.87;2.30;;;;;;;27.80;29.90;99289.06;1695576;84;21051;-78
2022/05/12 11:36:10;;;;;;;5.40;2.40;;;;;;;27.95;29.27;99284.12;1674055;84;21519;-79
2022/05/12 11:38:45;;;;;;;9.18;2.50;;;;;;;28.13;29.35;99282.86;1681691;84;21105;-79
2022/05/12 11:41:35;;;;;;;9.80;2.10;;;;;;;28.26;29.35;99270.02;1673886;84;20968;-78
2022/05/12 11:44:26;;;;;;;4.80;2.17;;;;;;;28.34;28.16;99267.44;1692474;84;21015;-78
2022/05/12 11:47:24;;;;;;;5.17;2.00;;;;;;;28.30;28.64;99254.02;1692789;84;20968;-79
2022/05/12 11:50:02;;;;;;;8.30;2.40;;;;;;;28.51;28.46;99261.84;1684946;84;21015;-77
2022/05/12 11:53:03;;;;;;;5.80;2.40;;;;;;;28.52;27.94;99252.81;1672785;84;21003;-79
2022/05/12 11:55:35;;;;;;;5.42;2.30;;;;;;;28.73;27.43;99251.72;1697001;84;21028;-79
2022/05/12 11:58:12;;;;;;;4.72;2.30;;;;;;;28.72;26.75;99252.70;1675023;83;20995;-79
2022/05/12 12:00:44;;;;;;;4.85;2.30;;;;;;;28.82;26.74;99252.63;1694571;84;21491;-79
2022/05/12 12:03:25;;;;;;;9.30;2.30;;;;;;;28.93;26.19;99251.91;1677452;84;20990;-80
2022/05/12 12:05:57;;;;;;;13.08;2.27;;;;;;;29.05;26.16;99253.00;1692951;84;20995;-78
2022/05/12 12:08:45;;;;;;;9.88;2.47;;;;;;;29.21;26.63;99245.64;1696715;84;21932;-79
2022/05/12 12:11:22;;;;;;;7.03;2.15;;;;;;;29.41;26.57;99243.66;1675039;84;20996;-79
2022/05/12 12:14:00;;;;;;;6.58;2.05;;;;;;;29.47;25.81;99241.70;1678333;84;21519;-78
2022/05/12 12:17:10;;;;;;;5.60;2.17;;;;;;;29.78;25.94;99238.06;1693403;84;21062;-78
2022/05/12 12:19:52;;;;;;;4.80;2.05;;;;;;;30.04;24.72;99230.02;1697809;84;21055;-77